createdAt,value
2019-05-03T00:00:06.313Z,100787.98
2019-05-03T00:02:26.734Z,100789.31
2019-05-03T00:03:32.028Z,100793.78
2019-05-03T00:04:37.974Z,100786.70
2019-05-03T00:05:46.117Z,100798.77
2019-05-03T00:06:52.082Z,100793.23
2019-05-03T00:08:02.188Z,100795.19
2019-05-03T00:09:09.387Z,100790.14
2019-05-03T00:10:14.986Z,100795.56
2019-05-03T00:11:22.094Z,100795.20
2019-05-03T00:12:27.598Z,100790.88
2019-05-03T00:13:32.666Z,100793.76
2019-05-03T00:14:39.377Z,100794.23
2019-05-03T00:15:52.225Z,100794.61
2019-05-03T00:16:57.183Z,100797.59
2019-05-03T00:18:02.416Z,100793.98
2019-05-03T00:19:07.499Z,100794.45
2019-05-03T00:20:12.699Z,100793.02
2019-05-03T00:21:17.727Z,100789.37
2019-05-03T00:22:22.703Z,100791.06
2019-05-03T00:23:27.622Z,100785.38
2019-05-03T00:24:32.671Z,100792.28
2019-05-03T00:25:37.703Z,100791.91
2019-05-03T00:26:42.903Z,100793.35
2019-05-03T00:27:48.148Z,100794.34
2019-05-03T00:28:53.069Z,100790.95
2019-05-03T00:29:58.257Z,100786.97
2019-05-03T00:31:03.711Z,100786.01
2019-05-03T00:32:12.488Z,100789.03
2019-05-03T00:33:17.661Z,100792.87
2019-05-03T00:34:27.850Z,100790.84
2019-05-03T00:35:54.972Z,100790.22
2019-05-03T00:37:01.849Z,100795.53
2019-05-03T00:38:08.445Z,100793.35
2019-05-03T00:39:21.608Z,100797.00
2019-05-03T00:40:29.933Z,100797.48
2019-05-03T00:41:34.864Z,100793.02
2019-05-03T00:42:39.875Z,100792.17
2019-05-03T00:43:44.810Z,100792.28
2019-05-03T00:44:51.677Z,100793.13
2019-05-03T00:45:56.713Z,100793.13
2019-05-03T00:47:02.325Z,100795.30
2019-05-03T00:48:07.299Z,100797.48
2019-05-03T00:49:12.309Z,100793.98
2019-05-03T00:50:17.255Z,100796.64
2019-05-03T00:51:22.626Z,100793.98
2019-05-03T00:52:27.899Z,100794.94
2019-05-03T00:53:32.818Z,100788.30
2019-05-03T00:54:37.744Z,100793.13
2019-05-03T00:55:42.765Z,100797.59
2019-05-03T00:56:47.934Z,100799.92
2019-05-03T00:57:53.122Z,100789.88
2019-05-03T00:58:59.224Z,100798.33
2019-05-03T01:00:04.560Z,100792.20
2019-05-03T01:01:09.575Z,100802.95
2019-05-03T01:02:14.612Z,100799.44
2019-05-03T01:03:21.809Z,100798.73
2019-05-03T01:04:26.510Z,100787.15
2019-05-03T01:05:33.147Z,100799.59
2019-05-03T01:06:38.184Z,100796.93
2019-05-03T01:07:43.478Z,100798.59
2019-05-03T01:08:48.800Z,100797.41
2019-05-03T01:09:53.744Z,100800.91
2019-05-03T01:10:58.680Z,100798.73
2019-05-03T01:12:03.721Z,100799.22
2019-05-03T01:13:08.876Z,100797.89
2019-05-03T01:14:13.932Z,100795.71
2019-05-03T01:15:26.216Z,100794.02
2019-05-03T01:16:31.853Z,100793.68
2019-05-03T01:17:36.930Z,100792.47
2019-05-03T01:18:42.323Z,100793.94
2019-05-03T01:19:47.328Z,100795.38
2019-05-03T01:20:52.294Z,100793.72
2019-05-03T01:21:57.299Z,100792.50
2019-05-03T01:23:02.504Z,100799.14
2019-05-03T01:24:07.503Z,100794.79
2019-05-03T01:25:12.590Z,100800.47
2019-05-03T01:26:17.942Z,100796.48
2019-05-03T01:27:22.945Z,100797.11
2019-05-03T01:28:28.655Z,100799.25
2019-05-03T01:29:33.654Z,100801.43
2019-05-03T01:30:38.872Z,100799.25
2019-05-03T01:31:44.053Z,100800.10
2019-05-03T01:32:49.482Z,100796.48
2019-05-03T01:33:54.814Z,100798.66
2019-05-03T01:34:59.767Z,100795.16
2019-05-03T01:36:04.975Z,100799.14
2019-05-03T01:37:11.817Z,100800.10
2019-05-03T01:38:19.396Z,100800.10
2019-05-03T01:39:23.671Z,100797.59
2019-05-03T01:40:28.678Z,100798.92
2019-05-03T01:41:33.611Z,100796.74
2019-05-03T01:42:38.591Z,100799.40
2019-05-03T01:43:43.507Z,100797.70
2019-05-03T01:44:48.529Z,100797.00
2019-05-03T01:45:53.698Z,100805.67
2019-05-03T01:47:02.302Z,100804.00
2019-05-03T01:48:21.599Z,100805.67
2019-05-03T01:49:45.599Z,100800.36
2019-05-03T01:51:02.852Z,100801.91
2019-05-03T01:52:15.483Z,100799.77
2019-05-03T01:53:21.652Z,100801.69
2019-05-03T01:54:26.736Z,100804.23
2019-05-03T01:55:49.567Z,100804.82
2019-05-03T01:56:58.749Z,100806.66
2019-05-03T01:58:01.940Z,100810.02
2019-05-03T01:59:06.966Z,100804.71
2019-05-03T02:00:14.937Z,100808.07
2019-05-03T02:01:34.833Z,100806.27
2019-05-03T02:02:56.426Z,100810.13
2019-05-03T02:04:07.008Z,100809.06
2019-05-03T02:05:40.022Z,100810.73
2019-05-03T02:06:45.561Z,100815.56
2019-05-03T02:07:51.966Z,100812.05
2019-05-03T02:08:57.359Z,100810.39
2019-05-03T02:10:02.858Z,100816.04
2019-05-03T02:11:07.893Z,100810.25
2019-05-03T02:12:12.880Z,100811.47
2019-05-03T02:13:18.001Z,100812.79
2019-05-03T02:14:22.931Z,100811.09
2019-05-03T02:15:28.207Z,100807.11
2019-05-03T02:16:33.313Z,100814.23
2019-05-03T02:17:38.579Z,100811.58
2019-05-03T02:18:43.503Z,100816.04
2019-05-03T02:19:48.643Z,100817.03
2019-05-03T02:20:54.077Z,100814.48
2019-05-03T02:21:59.001Z,100812.79
2019-05-03T02:23:04.035Z,100818.61
2019-05-03T02:24:09.252Z,100819.57
2019-05-03T02:25:14.248Z,100820.53
2019-05-03T02:26:19.794Z,100820.16
2019-05-03T02:27:24.711Z,100821.64
2019-05-03T02:28:29.733Z,100820.42
2019-05-03T02:29:34.987Z,100823.44
2019-05-03T02:30:43.681Z,100823.92
2019-05-03T02:31:46.970Z,100822.59
2019-05-03T02:32:53.338Z,100824.41
2019-05-03T02:33:58.467Z,100828.38
2019-05-03T02:35:03.574Z,100823.59
2019-05-03T02:36:08.489Z,100826.58
2019-05-03T02:37:14.075Z,100824.91
2019-05-03T02:38:19.390Z,100826.72
2019-05-03T02:39:24.429Z,100830.70
2019-05-03T02:40:29.409Z,100828.78
2019-05-03T02:41:34.355Z,100832.53
2019-05-03T02:42:39.437Z,100834.34
2019-05-03T02:43:47.610Z,100836.63
2019-05-03T02:44:55.156Z,100842.42
2019-05-03T02:46:07.302Z,100838.91
2019-05-03T02:47:30.187Z,100844.23
2019-05-03T02:48:41.380Z,100837.95
2019-05-03T02:49:56.001Z,100841.34
2019-05-03T02:51:00.411Z,100836.66
2019-05-03T02:52:06.677Z,100842.81
2019-05-03T02:53:12.237Z,100841.59
2019-05-03T02:54:17.393Z,100842.92
2019-05-03T02:55:25.720Z,100846.53
2019-05-03T02:56:29.601Z,100848.34
2019-05-03T02:57:35.259Z,100848.00
2019-05-03T02:58:40.224Z,100843.28
2019-05-03T02:59:49.728Z,100845.12
2019-05-03T03:00:58.310Z,100850.91
2019-05-03T03:02:06.126Z,100843.28
2019-05-03T03:03:10.732Z,100852.09
2019-05-03T03:04:17.223Z,100850.06
2019-05-03T03:05:25.187Z,100849.66
2019-05-03T03:06:31.586Z,100848.58
2019-05-03T03:07:37.707Z,100853.29
2019-05-03T03:08:46.029Z,100844.14
2019-05-03T03:09:51.692Z,100848.70
2019-05-03T03:11:00.124Z,100848.00
2019-05-03T03:12:07.129Z,100854.16
2019-05-03T03:13:16.214Z,100850.76
2019-05-03T03:14:22.182Z,100846.78
2019-05-03T03:15:28.987Z,100853.55
2019-05-03T03:16:36.402Z,100851.38
2019-05-03T03:17:45.671Z,100850.53
2019-05-03T03:18:52.594Z,100846.55
2019-05-03T03:19:59.403Z,100852.48
2019-05-03T03:21:08.365Z,100852.11
2019-05-03T03:22:16.338Z,100847.75
2019-05-03T03:23:26.105Z,100848.74
2019-05-03T03:24:31.952Z,100841.73
2019-05-03T03:25:40.237Z,100843.68
2019-05-03T03:26:47.378Z,100847.29
2019-05-03T03:27:56.479Z,100842.94
2019-05-03T03:29:06.125Z,100838.73
2019-05-03T03:30:31.643Z,100848.97
2019-05-03T03:32:01.275Z,100846.45
2019-05-03T03:33:09.732Z,100847.18
2019-05-03T03:34:18.161Z,100844.77
2019-05-03T03:35:29.950Z,100843.55
2019-05-03T03:36:57.972Z,100846.08
2019-05-03T03:37:46.246Z,100850.67
2019-05-03T03:38:51.056Z,100854.41
2019-05-03T03:39:56.524Z,100850.20
2019-05-03T03:41:05.604Z,100847.18
2019-05-03T03:42:11.012Z,100842.48
2019-05-03T03:43:17.540Z,100851.40
2019-05-03T03:44:25.374Z,100851.50
2019-05-03T03:45:30.114Z,100841.62
2019-05-03T03:46:37.898Z,100841.62
2019-05-03T03:47:46.411Z,100861.27
2019-05-03T03:48:55.934Z,100858.98
2019-05-03T03:50:01.949Z,100847.66
2019-05-03T03:51:09.927Z,100861.05
2019-05-03T03:52:16.125Z,100861.05
2019-05-03T03:53:22.724Z,100859.22
2019-05-03T03:54:31.064Z,100862.38
2019-05-03T03:55:38.708Z,100859.36
2019-05-03T03:57:02.194Z,100860.31
2019-05-03T03:57:55.687Z,100858.61
2019-05-03T03:59:00.964Z,100865.24
2019-05-03T04:00:09.767Z,100862.25
2019-05-03T04:01:15.700Z,100863.10
2019-05-03T04:02:21.059Z,100868.51
2019-05-03T04:03:26.527Z,100857.91
2019-05-03T04:04:32.416Z,100867.32
2019-05-03T04:05:37.858Z,100869.97
2019-05-03T04:06:43.047Z,100868.75
2019-05-03T04:07:48.092Z,100873.69
2019-05-03T04:08:56.095Z,100870.55
2019-05-03T04:10:00.860Z,100873.34
2019-05-03T04:11:06.429Z,100873.34
2019-05-03T04:12:12.215Z,100876.95
2019-05-03T04:13:18.476Z,100876.58
2019-05-03T04:14:29.627Z,100873.21
2019-05-03T04:15:50.110Z,100877.05
2019-05-03T04:17:08.453Z,100881.64
2019-05-03T04:18:25.740Z,100878.25
2019-05-03T04:19:36.401Z,100882.46
2019-05-03T04:20:40.609Z,100881.37
2019-05-03T04:21:45.704Z,100877.63
2019-05-03T04:22:50.631Z,100878.96
2019-05-03T04:23:56.130Z,100882.56
2019-05-03T04:25:01.782Z,100885.21
2019-05-03T04:26:07.187Z,100887.39
2019-05-03T04:27:19.678Z,100886.54
2019-05-03T04:28:20.200Z,100891.50
2019-05-03T04:29:25.760Z,100890.66
2019-05-03T04:30:30.862Z,100901.13
2019-05-03T04:31:36.739Z,100901.13
2019-05-03T04:32:41.927Z,100891.23
2019-05-03T04:33:47.043Z,100904.05
2019-05-03T04:34:52.735Z,100897.99
2019-05-03T04:35:57.847Z,100908.50
2019-05-03T04:37:05.274Z,100907.52
2019-05-03T04:38:09.583Z,100914.98
2019-05-03T04:39:19.678Z,100903.53
2019-05-03T04:40:21.445Z,100908.73
2019-05-03T04:41:27.139Z,100909.59
2019-05-03T04:42:32.182Z,100915.61
2019-05-03T04:43:37.168Z,100916.08
2019-05-03T04:44:45.350Z,100916.08
2019-05-03T04:46:06.221Z,100920.81
2019-05-03T04:47:10.275Z,100920.81
2019-05-03T04:48:16.214Z,100928.16
2019-05-03T04:49:21.410Z,100923.22
2019-05-03T04:50:26.408Z,100919.96
2019-05-03T04:51:31.453Z,100917.69
2019-05-03T04:52:36.400Z,100917.69
2019-05-03T04:53:45.470Z,100933.59
2019-05-03T04:54:56.222Z,100936.25
2019-05-03T04:56:01.693Z,100942.02
2019-05-03T04:57:06.976Z,100935.53
2019-05-03T04:58:11.937Z,100933.83
2019-05-03T04:59:16.976Z,100945.05
2019-05-03T05:00:22.179Z,100940.33
2019-05-03T05:01:27.141Z,100945.63
2019-05-03T05:02:35.234Z,100944.53
2019-05-03T05:03:39.423Z,100950.92
2019-05-03T05:04:46.341Z,100952.72
2019-05-03T05:05:51.289Z,100952.01
2019-05-03T05:06:56.235Z,100952.58
2019-05-03T05:08:01.180Z,100957.89
2019-05-03T05:09:07.246Z,100957.89
2019-05-03T05:10:15.114Z,100959.96
2019-05-03T05:11:19.272Z,100957.31
2019-05-03T05:12:25.279Z,100957.31
2019-05-03T05:13:30.336Z,100959.73
2019-05-03T05:14:35.542Z,100963.95
2019-05-03T05:15:40.708Z,100962.05
2019-05-03T05:16:46.571Z,100965.08
2019-05-03T05:18:05.768Z,100963.52
2019-05-03T05:19:15.137Z,100968.59
2019-05-03T05:20:26.230Z,100971.00
2019-05-03T05:21:35.516Z,100971.85
2019-05-03T05:22:40.638Z,100969.06
2019-05-03T05:24:02.327Z,100968.83
2019-05-03T05:25:11.118Z,100977.53
2019-05-03T05:26:19.162Z,100970.66
2019-05-03T05:27:29.911Z,100976.58
2019-05-03T05:28:47.655Z,100972.84
2019-05-03T05:29:52.852Z,100969.95
2019-05-03T05:30:58.279Z,100978.05
2019-05-03T05:32:05.195Z,100975.16
2019-05-03T05:33:20.558Z,100976.23
2019-05-03T05:34:25.728Z,100980.45
2019-05-03T05:35:30.730Z,100975.52
2019-05-03T05:36:35.669Z,100979.03
2019-05-03T05:37:40.878Z,100980.35
2019-05-03T05:38:45.848Z,100982.63
2019-05-03T05:39:50.993Z,100987.94
2019-05-03T05:40:56.343Z,100981.78
2019-05-03T05:42:01.429Z,100990.22
2019-05-03T05:43:06.442Z,100978.76
2019-05-03T05:44:11.795Z,100990.84
2019-05-03T05:45:16.787Z,100990.84
2019-05-03T05:46:24.911Z,100997.23
2019-05-03T05:47:46.652Z,100992.64
2019-05-03T05:48:51.867Z,100994.09
2019-05-03T05:50:00.913Z,100983.38
2019-05-03T05:51:06.142Z,101006.06
2019-05-03T05:52:11.656Z,100995.30
2019-05-03T05:53:16.809Z,100989.44
2019-05-03T05:54:21.865Z,100987.52
2019-05-03T05:55:44.846Z,100996.55
2019-05-03T05:57:05.047Z,101000.31
2019-05-03T05:58:19.517Z,101001.14
2019-05-03T05:59:29.344Z,101002.81
2019-05-03T06:00:44.678Z,101006.45
2019-05-03T06:01:58.379Z,100998.36
2019-05-03T06:03:05.151Z,100995.95
2019-05-03T06:04:10.241Z,101005.50
2019-05-03T06:05:15.332Z,100999.44
2019-05-03T06:06:30.803Z,101007.66
2019-05-03T06:07:51.789Z,101000.41
2019-05-03T06:09:05.086Z,101006.10
2019-05-03T06:10:16.735Z,101007.67
2019-05-03T06:11:29.282Z,101007.55
2019-05-03T06:12:45.504Z,101006.56
2019-05-03T06:13:55.116Z,101009.48
2019-05-03T06:15:04.736Z,101014.18
2019-05-03T06:16:17.669Z,101012.84
2019-05-03T06:17:27.209Z,101014.53
2019-05-03T06:18:39.184Z,101012.38
2019-05-03T06:20:05.453Z,101010.56
2019-05-03T06:21:20.363Z,101012.63
2019-05-03T06:22:31.936Z,101015.02
2019-05-03T06:23:40.958Z,101008.59
2019-05-03T06:24:50.981Z,101016.09
2019-05-03T06:25:55.949Z,101010.76
2019-05-03T06:27:15.226Z,101008.92
2019-05-03T06:28:28.811Z,101014.22
2019-05-03T06:29:35.174Z,101011.09
2019-05-03T06:31:02.350Z,101011.06
2019-05-03T06:32:31.906Z,101009.48
2019-05-03T06:33:36.947Z,101009.11
2019-05-03T06:34:41.945Z,101020.14
2019-05-03T06:35:46.967Z,101008.29
2019-05-03T06:36:55.290Z,101020.73
2019-05-03T06:38:00.204Z,101018.80
2019-05-03T06:39:08.522Z,101017.14
2019-05-03T06:40:14.901Z,101023.53
2019-05-03T06:41:20.019Z,101026.05
2019-05-03T06:42:25.526Z,101026.05
2019-05-03T06:43:30.822Z,101022.69
2019-05-03T06:44:36.056Z,101024.86
2019-05-03T06:45:45.826Z,101023.28
2019-05-03T06:46:48.025Z,101025.69
2019-05-03T06:47:55.088Z,101025.92
2019-05-03T06:49:01.037Z,101022.41
2019-05-03T06:50:06.347Z,101015.14
2019-05-03T06:51:17.227Z,101022.38
2019-05-03T06:52:19.893Z,101013.45
2019-05-03T06:53:25.572Z,101012.82
2019-05-03T06:54:30.628Z,101019.84
2019-05-03T06:55:39.699Z,101004.70
2019-05-03T06:56:42.494Z,101015.12
2019-05-03T06:57:49.509Z,101008.33
2019-05-03T06:58:55.216Z,101017.86
2019-05-03T07:00:11.379Z,101014.94
2019-05-03T07:01:28.414Z,101018.19
2019-05-03T07:02:48.201Z,101017.34
2019-05-03T07:04:00.317Z,101011.77
2019-05-03T07:05:07.107Z,101018.02
2019-05-03T07:06:40.652Z,101019.71
2019-05-03T07:07:49.302Z,101008.70
2019-05-03T07:09:02.833Z,101013.54
2019-05-03T07:10:12.005Z,101011.98
2019-05-03T07:11:17.020Z,101012.95
2019-05-03T07:12:22.096Z,101017.31
2019-05-03T07:13:27.021Z,101025.30
2019-05-03T07:14:32.040Z,101022.89
2019-05-03T07:15:36.985Z,101020.48
2019-05-03T07:16:41.922Z,101017.13
2019-05-03T07:17:46.897Z,101024.84
2019-05-03T07:18:51.856Z,101022.33
2019-05-03T07:19:56.786Z,101030.31
2019-05-03T07:21:01.794Z,101026.32
2019-05-03T07:22:06.879Z,101017.71
2019-05-03T07:23:11.961Z,101024.59
2019-05-03T07:24:17.449Z,101028.84
2019-05-03T07:25:22.437Z,101022.74
2019-05-03T07:26:27.689Z,101020.67
2019-05-03T07:27:34.871Z,101014.61
2019-05-03T07:28:47.118Z,101024.30
2019-05-03T07:29:46.594Z,101021.74
2019-05-03T07:30:51.553Z,101018.75
2019-05-03T07:31:56.518Z,101021.74
2019-05-03T07:33:05.824Z,101022.96
2019-05-03T07:34:10.790Z,101019.82
2019-05-03T07:35:15.894Z,101017.89
2019-05-03T07:36:20.845Z,101017.64
2019-05-03T07:37:25.796Z,101018.22
2019-05-03T07:38:30.800Z,101016.04
2019-05-03T07:39:35.806Z,101020.11
2019-05-03T07:40:41.052Z,101019.03
2019-05-03T07:41:46.246Z,101014.41
2019-05-03T07:42:51.274Z,101012.70
2019-05-03T07:43:56.515Z,101014.67
2019-05-03T07:45:01.491Z,101016.96
2019-05-03T07:46:06.585Z,101016.00
2019-05-03T07:47:11.735Z,101008.64
2019-05-03T07:48:16.940Z,101010.56
2019-05-03T07:49:21.971Z,101008.17
2019-05-03T07:50:27.359Z,101010.72
2019-05-03T07:51:32.336Z,101010.28
2019-05-03T07:52:37.249Z,101007.63
2019-05-03T07:53:42.229Z,101009.70
2019-05-03T07:54:47.219Z,101005.70
2019-05-03T07:56:17.324Z,101005.63
2019-05-03T07:57:45.315Z,101007.55
2019-05-03T07:59:00.007Z,101008.55
2019-05-03T07:59:59.760Z,101010.69
2019-05-03T08:01:09.987Z,101018.56
2019-05-03T08:02:15.032Z,101016.61
2019-05-03T08:03:20.138Z,101014.94
2019-05-03T08:04:25.662Z,101020.73
2019-05-03T08:05:30.850Z,101022.78
2019-05-03T08:06:35.849Z,101025.55
2019-05-03T08:07:43.797Z,101025.77
2019-05-03T08:08:47.702Z,101022.52
2019-05-03T08:09:52.628Z,101021.74
2019-05-03T08:10:57.810Z,101019.59
2019-05-03T08:12:04.901Z,101018.45
2019-05-03T08:13:09.481Z,101021.69
2019-05-03T08:14:18.003Z,101021.27
2019-05-03T08:15:21.536Z,101020.11
2019-05-03T08:16:26.564Z,101021.18
2019-05-03T08:17:31.790Z,101018.25
2019-05-03T08:18:36.790Z,101011.33
2019-05-03T08:19:41.829Z,101020.91
2019-05-03T08:20:47.248Z,101011.80
2019-05-03T08:21:52.287Z,101020.95
2019-05-03T08:22:57.233Z,101021.53
2019-05-03T08:24:04.393Z,101011.58
2019-05-03T08:25:09.051Z,101017.39
2019-05-03T08:26:15.271Z,101018.02
2019-05-03T08:27:20.336Z,101021.53
2019-05-03T08:28:25.525Z,101021.87
2019-05-03T08:29:30.728Z,101017.02
2019-05-03T08:30:55.815Z,101015.20
2019-05-03T08:32:07.755Z,101012.80
2019-05-03T08:33:35.420Z,101005.02
2019-05-03T08:34:51.106Z,101013.49
2019-05-03T08:35:56.137Z,101015.79
2019-05-03T08:37:05.401Z,101012.80
2019-05-03T08:38:10.623Z,101009.18
2019-05-03T08:39:15.871Z,101020.32
2019-05-03T08:40:24.420Z,101019.20
2019-05-03T08:41:30.776Z,101018.67
2019-05-03T08:42:35.831Z,101015.35
2019-05-03T08:43:40.820Z,101016.51
2019-05-03T08:44:45.730Z,101014.27
2019-05-03T08:45:50.619Z,101012.18
2019-05-03T08:46:56.386Z,101013.52
2019-05-03T08:48:01.523Z,101016.18
2019-05-03T08:49:06.674Z,101013.66
2019-05-03T08:50:15.770Z,101012.87
2019-05-03T08:51:18.666Z,100998.03
2019-05-03T08:52:24.792Z,101005.86
2019-05-03T08:53:30.020Z,101008.70
2019-05-03T08:54:35.106Z,101014.78
2019-05-03T08:55:40.031Z,101016.16
2019-05-03T08:56:45.326Z,101014.58
2019-05-03T08:57:50.283Z,101015.06
2019-05-03T08:58:55.586Z,101011.80
2019-05-03T09:00:01.066Z,101012.86
2019-05-03T09:01:06.252Z,101021.44
2019-05-03T09:02:17.765Z,101010.25
2019-05-03T09:03:18.189Z,101006.78
2019-05-03T09:04:34.218Z,101008.52
2019-05-03T09:05:30.294Z,101007.85
2019-05-03T09:06:35.523Z,101006.83
2019-05-03T09:07:40.817Z,101001.44
2019-05-03T09:08:45.994Z,101006.43
2019-05-03T09:09:58.250Z,101003.85
2019-05-03T09:11:09.930Z,101005.00
2019-05-03T09:12:15.455Z,101016.84
2019-05-03T09:13:21.348Z,101011.42
2019-05-03T09:14:38.748Z,101006.61
2019-05-03T09:15:34.992Z,101002.67
2019-05-03T09:16:40.029Z,101010.09
2019-05-03T09:17:44.960Z,101006.28
2019-05-03T09:18:49.967Z,101008.16
2019-05-03T09:19:55.128Z,101011.22
2019-05-03T09:21:00.262Z,101008.94
2019-05-03T09:22:06.164Z,101008.88
2019-05-03T09:23:11.459Z,101002.13
2019-05-03T09:24:16.378Z,101000.70
2019-05-03T09:25:21.687Z,101003.27
2019-05-03T09:26:29.383Z,101010.20
2019-05-03T09:27:34.435Z,100999.47
2019-05-03T09:28:39.335Z,101001.05
2019-05-03T09:29:46.218Z,101000.70
2019-05-03T09:30:51.023Z,101002.31
2019-05-03T09:31:56.113Z,100995.92
2019-05-03T09:33:01.129Z,100998.70
2019-05-03T09:34:08.218Z,101001.99
2019-05-03T09:35:28.933Z,101004.41
2019-05-03T09:36:21.317Z,101001.67
2019-05-03T09:37:26.321Z,100998.16
2019-05-03T09:38:31.495Z,100989.59
2019-05-03T09:39:36.588Z,100991.19
2019-05-03T09:40:41.663Z,100994.45
2019-05-03T09:41:46.608Z,100989.49
2019-05-03T09:42:51.862Z,100989.71
2019-05-03T09:43:56.793Z,100984.97
2019-05-03T09:45:01.888Z,100985.44
2019-05-03T09:46:07.091Z,100986.50
2019-05-03T09:47:14.519Z,100986.72
2019-05-03T09:48:19.033Z,100978.61
2019-05-03T09:49:25.322Z,100978.67
2019-05-03T09:50:30.482Z,100983.24
2019-05-03T09:51:35.453Z,100984.55
2019-05-03T09:52:40.581Z,100981.56
2019-05-03T09:53:51.129Z,100974.23
2019-05-03T09:54:57.735Z,100970.39
2019-05-03T09:56:05.036Z,100969.23
2019-05-03T09:57:09.819Z,100974.38
2019-05-03T09:58:15.425Z,100973.89
2019-05-03T09:59:20.554Z,100973.45
2019-05-03T10:00:25.579Z,100974.10
2019-05-03T10:01:30.557Z,100985.42
2019-05-03T10:02:35.847Z,100976.50
2019-05-03T10:03:41.120Z,100987.95
2019-05-03T10:04:46.142Z,100983.81
2019-05-03T10:05:51.176Z,100981.63
2019-05-03T10:06:56.316Z,100986.56
2019-05-03T10:08:01.273Z,100976.78
2019-05-03T10:09:06.827Z,100972.21
2019-05-03T10:10:12.329Z,100981.06
2019-05-03T10:11:17.881Z,100975.36
2019-05-03T10:12:25.538Z,100969.34
2019-05-03T10:13:30.528Z,100973.46
2019-05-03T10:14:35.737Z,100969.70
2019-05-03T10:15:41.295Z,100983.24
2019-05-03T10:17:05.395Z,100977.75
2019-05-03T10:18:13.324Z,100975.53
2019-05-03T10:19:18.295Z,100974.48
2019-05-03T10:20:25.289Z,100983.05
2019-05-03T10:21:31.998Z,100978.33
2019-05-03T10:22:37.026Z,100979.05
2019-05-03T10:23:42.122Z,100976.70
2019-05-03T10:24:47.173Z,100991.95
2019-05-03T10:25:52.161Z,100987.46
2019-05-03T10:26:57.440Z,100976.59
2019-05-03T10:28:02.587Z,100975.25
2019-05-03T10:29:07.622Z,100977.56
2019-05-03T10:30:16.618Z,100979.33
2019-05-03T10:31:25.221Z,100980.86
2019-05-03T10:32:38.522Z,100980.42
2019-05-03T10:33:54.424Z,100977.70
2019-05-03T10:35:05.504Z,100976.98
2019-05-03T10:36:10.193Z,100974.67
2019-05-03T10:37:30.102Z,100978.55
2019-05-03T10:38:35.192Z,100976.21
2019-05-03T10:39:40.193Z,100985.63
2019-05-03T10:40:45.419Z,100984.30
2019-05-03T10:41:50.684Z,100985.27
2019-05-03T10:42:56.396Z,100984.66
2019-05-03T10:44:01.717Z,100981.23
2019-05-03T10:45:06.823Z,100979.94
2019-05-03T10:46:11.907Z,100972.37
2019-05-03T10:47:16.928Z,100975.05
2019-05-03T10:48:22.192Z,100976.50
2019-05-03T10:49:27.405Z,100973.70
2019-05-03T10:50:34.237Z,100971.73
2019-05-03T10:51:45.239Z,100976.78
2019-05-03T10:52:56.961Z,100968.58
2019-05-03T10:54:02.141Z,100969.91
2019-05-03T10:55:07.372Z,100968.73
2019-05-03T10:56:31.826Z,100966.06
2019-05-03T10:57:39.390Z,100972.73
2019-05-03T10:58:46.370Z,100969.02
2019-05-03T10:59:51.486Z,100976.30
2019-05-03T11:00:56.836Z,100969.55
2019-05-03T11:02:20.855Z,100973.84
2019-05-03T11:03:25.802Z,100975.66
2019-05-03T11:04:30.841Z,100978.12
2019-05-03T11:05:36.228Z,100973.07
2019-05-03T11:06:41.473Z,100967.66
2019-05-03T11:07:46.771Z,100968.58
2019-05-03T11:08:51.723Z,100970.84
2019-05-03T11:09:56.675Z,100964.70
2019-05-03T11:11:02.116Z,100967.03
2019-05-03T11:12:07.194Z,100966.39
2019-05-03T11:13:12.487Z,100961.42
2019-05-03T11:14:19.712Z,100969.27
2019-05-03T11:15:25.838Z,100968.30
2019-05-03T11:16:31.137Z,100967.16
2019-05-03T11:17:36.271Z,100971.73
2019-05-03T11:18:41.599Z,100964.86
2019-05-03T11:19:47.139Z,100966.12
2019-05-03T11:20:52.329Z,100965.55
2019-05-03T11:21:57.643Z,100967.61
2019-05-03T11:23:05.891Z,100969.63
2019-05-03T11:24:10.709Z,100965.02
2019-05-03T11:25:16.238Z,100973.34
2019-05-03T11:26:21.288Z,100969.22
2019-05-03T11:27:32.395Z,100969.83
2019-05-03T11:28:37.411Z,100966.34
2019-05-03T11:29:42.374Z,100964.73
2019-05-03T11:30:56.484Z,100960.77
2019-05-03T11:32:09.427Z,100965.34
2019-05-03T11:33:17.754Z,100958.61
2019-05-03T11:34:25.385Z,100957.03
2019-05-03T11:35:36.078Z,100960.13
2019-05-03T11:37:07.179Z,100956.19
2019-05-03T11:38:18.689Z,100954.57
2019-05-03T11:39:25.094Z,100956.59
2019-05-03T11:40:30.347Z,100950.47
2019-05-03T11:41:37.025Z,100953.02
2019-05-03T11:42:42.150Z,100957.22
2019-05-03T11:43:47.137Z,100956.44
2019-05-03T11:44:52.288Z,100945.27
2019-05-03T11:45:57.265Z,100948.63
2019-05-03T11:47:02.493Z,100951.00
2019-05-03T11:48:07.722Z,100949.53
2019-05-03T11:49:14.777Z,100951.27
2019-05-03T11:50:19.883Z,100953.05
2019-05-03T11:51:24.931Z,100944.75
2019-05-03T11:52:30.048Z,100942.89
2019-05-03T11:53:35.744Z,100949.44
2019-05-03T11:54:41.290Z,100949.92
2019-05-03T11:55:46.594Z,100944.58
2019-05-03T11:56:55.639Z,100946.08
2019-05-03T11:58:02.732Z,100937.05
2019-05-03T11:59:07.807Z,100944.45
2019-05-03T12:00:15.845Z,100948.78
2019-05-03T12:01:25.677Z,100941.32
2019-05-03T12:02:52.738Z,100939.20
2019-05-03T12:04:01.976Z,100948.31
2019-05-03T12:05:10.946Z,100949.36
2019-05-03T12:06:16.363Z,100939.34
2019-05-03T12:07:46.410Z,100939.47
2019-05-03T12:08:51.857Z,100943.42
2019-05-03T12:09:57.288Z,100938.21
2019-05-03T12:11:02.317Z,100937.11
2019-05-03T12:12:08.183Z,100938.02
2019-05-03T12:13:22.138Z,100931.52
2019-05-03T12:14:27.049Z,100925.67
2019-05-03T12:15:32.140Z,100927.81
2019-05-03T12:17:11.666Z,100932.42
2019-05-03T12:17:54.176Z,100932.84
2019-05-03T12:18:53.949Z,100928.23
2019-05-03T12:19:59.908Z,100931.09
2019-05-03T12:21:08.570Z,100923.67
2019-05-03T12:22:13.059Z,100916.06
2019-05-03T12:23:18.996Z,100924.31
2019-05-03T12:24:26.717Z,100925.03
2019-05-03T12:25:31.714Z,100925.53
2019-05-03T12:26:43.797Z,100922.95
2019-05-03T12:27:44.489Z,100913.41
2019-05-03T12:28:49.486Z,100923.94
2019-05-03T12:29:54.915Z,100923.38
2019-05-03T12:31:00.166Z,100920.34
2019-05-03T12:32:05.621Z,100918.41
2019-05-03T12:33:10.653Z,100915.09
2019-05-03T12:34:16.024Z,100916.10
2019-05-03T12:35:21.244Z,100921.22
2019-05-03T12:36:26.275Z,100916.17
2019-05-03T12:37:31.229Z,100915.98
2019-05-03T12:38:36.299Z,100927.45
2019-05-03T12:39:41.227Z,100920.34
2019-05-03T12:40:46.394Z,100922.59
2019-05-03T12:41:51.464Z,100917.22
2019-05-03T12:42:56.545Z,100909.64
2019-05-03T12:44:01.576Z,100912.95
2019-05-03T12:45:06.653Z,100910.58
2019-05-03T12:46:11.968Z,100911.55
2019-05-03T12:47:17.218Z,100905.50
2019-05-03T12:48:22.227Z,100906.51
2019-05-03T12:49:27.238Z,100907.55